Pontevedra, Spain
Current Conditions -  °F | °C
As of 4:00 AM on Tuesday 23 Dec 2014 (Local Time) from LEVX Reporting Station
Clear Clear  
Wind Chill: 35°   Ceiling: Unl
Heat Index: 41°   Visibility: 6mi
Dew Point: 41°   Wind: 9mph
Humidity: 100%   Direction: 210°SSW
Pressure: 30.36"   Gusts: NA
Location:  42.43°N, 8.65°W
Report Text: LEVX 230300Z 21008KT 190V250 9000 NSC 05/05 Q1028 TEMPO 0800 BCFG
Loading
Personal Weather Stations






























Interactive Weather Map New forecast layout! Learn more

10-Day Weather Forecast

Advertisements
Track Severe Weather on mobile